Abney, South Carolina
Current Conditions -  °F | °C
As of 10:15 AM on Monday 22 Dec 2014 (Local Time) from KCDN Reporting Station
Haze Haze  
Wind Chill: 36°   Ceiling: 400
Heat Index: 41°   Visibility: 2.5mi
Dew Point: 41°   Wind: 7mph
Humidity: 100%   Direction: 40°NE
Pressure: 30.12"   Gusts: NA
Location:  34.5438°N, 80.5351°W
Report Text: KCDN 221515Z AUTO 04006KT 2 1/2SM BR OVC004 05/05 A3012 RMK AO2 TSNO
Loading
Personal Weather Stations






























Interactive Weather Map New forecast layout! Learn more

10-Day Weather Forecast

Advertisements
Track Severe Weather on mobile